sensor_id;sensor_type;location;lat;lon;timestamp;temperature;humidity
24224;DHT22;12359;49.716;9.212;2023-05-07T00:01:09;14.00;24.00
24224;DHT22;12359;49.716;9.212;2023-05-07T00:03:34;14.00;23.50
24224;DHT22;12359;49.716;9.212;2023-05-07T00:06:00;13.90;26.30
24224;DHT22;12359;49.716;9.212;2023-05-07T00:08:26;13.80;31.80
24224;DHT22;12359;49.716;9.212;2023-05-07T00:10:51;13.80;35.20
24224;DHT22;12359;49.716;9.212;2023-05-07T00:13:17;13.70;38.30
24224;DHT22;12359;49.716;9.212;2023-05-07T00:15:43;13.70;40.20
24224;DHT22;12359;49.716;9.212;2023-05-07T00:18:08;13.70;41.40
24224;DHT22;12359;49.716;9.212;2023-05-07T00:20:34;13.70;42.80
24224;DHT22;12359;49.716;9.212;2023-05-07T00:23:00;13.70;41.20
24224;DHT22;12359;49.716;9.212;2023-05-07T00:25:25;13.70;41.60
24224;DHT22;12359;49.716;9.212;2023-05-07T00:27:51;13.70;40.60
24224;DHT22;12359;49.716;9.212;2023-05-07T00:30:17;13.60;44.30
24224;DHT22;12359;49.716;9.212;2023-05-07T00:32:42;13.60;45.30
24224;DHT22;12359;49.716;9.212;2023-05-07T00:35:10;13.60;46.50
24224;DHT22;12359;49.716;9.212;2023-05-07T00:37:36;13.50;45.60
24224;DHT22;12359;49.716;9.212;2023-05-07T00:40:02;13.40;49.30
24224;DHT22;12359;49.716;9.212;2023-05-07T00:42:30;13.40;52.20
24224;DHT22;12359;49.716;9.212;2023-05-07T00:44:58;13.40;50.70
24224;DHT22;12359;49.716;9.212;2023-05-07T00:47:25;13.30;51.50
24224;DHT22;12359;49.716;9.212;2023-05-07T00:49:51;13.30;53.60
24224;DHT22;12359;49.716;9.212;2023-05-07T00:52:18;13.30;53.60
24224;DHT22;12359;49.716;9.212;2023-05-07T00:54:45;13.20;54.90
24224;DHT22;12359;49.716;9.212;2023-05-07T00:57:11;13.20;55.70
24224;DHT22;12359;49.716;9.212;2023-05-07T00:59:37;13.20;53.70
24224;DHT22;12359;49.716;9.212;2023-05-07T01:02:03;13.10;52.50
24224;DHT22;12359;49.716;9.212;2023-05-07T01:04:29;13.10;53.50
24224;DHT22;12359;49.716;9.212;2023-05-07T01:06:55;13.00;52.50
24224;DHT22;12359;49.716;9.212;2023-05-07T01:09:23;12.90;61.30
24224;DHT22;12359;49.716;9.212;2023-05-07T01:11:49;12.90;70.30
24224;DHT22;12359;49.716;9.212;2023-05-07T01:14:16;12.90;66.40
24224;DHT22;12359;49.716;9.212;2023-05-07T01:16:42;12.90;67.30
24224;DHT22;12359;49.716;9.212;2023-05-07T01:19:08;12.90;69.60
24224;DHT22;12359;49.716;9.212;2023-05-07T01:21:37;12.90;77.00
24224;DHT22;12359;49.716;9.212;2023-05-07T01:24:03;12.90;75.00
24224;DHT22;12359;49.716;9.212;2023-05-07T01:26:30;12.90;74.70
24224;DHT22;12359;49.716;9.212;2023-05-07T01:28:56;13.00;70.90
24224;DHT22;12359;49.716;9.212;2023-05-07T01:31:23;13.00;70.80
24224;DHT22;12359;49.716;9.212;2023-05-07T01:33:50;13.00;71.60
24224;DHT22;12359;49.716;9.212;2023-05-07T01:36:17;12.90;72.70
24224;DHT22;12359;49.716;9.212;2023-05-07T01:38:44;12.90;73.20
24224;DHT22;12359;49.716;9.212;2023-05-07T01:41:11;12.90;70.80
24224;DHT22;12359;49.716;9.212;2023-05-07T01:43:38;12.90;66.30
24224;DHT22;12359;49.716;9.212;2023-05-07T01:46:04;12.80;70.60
24224;DHT22;12359;49.716;9.212;2023-05-07T01:48:30;12.70;76.10
24224;DHT22;12359;49.716;9.212;2023-05-07T01:50:57;12.70;79.60
24224;DHT22;12359;49.716;9.212;2023-05-07T01:53:23;12.80;78.90
24224;DHT22;12359;49.716;9.212;2023-05-07T01:55:49;12.90;78.00
24224;DHT22;12359;49.716;9.212;2023-05-07T01:58:14;12.90;75.20
24224;DHT22;12359;49.716;9.212;2023-05-07T02:00:40;12.90;73.50
24224;DHT22;12359;49.716;9.212;2023-05-07T02:03:06;12.90;70.90
24224;DHT22;12359;49.716;9.212;2023-05-07T02:05:32;13.00;70.60
24224;DHT22;12359;49.716;9.212;2023-05-07T02:07:57;13.00;68.40
24224;DHT22;12359;49.716;9.212;2023-05-07T02:10:23;13.00;68.80
24224;DHT22;12359;49.716;9.212;2023-05-07T02:12:49;12.90;65.30
24224;DHT22;12359;49.716;9.212;2023-05-07T02:15:14;12.90;67.00
24224;DHT22;12359;49.716;9.212;2023-05-07T02:17:59;12.90;69.20
24224;DHT22;12359;49.716;9.212;2023-05-07T02:20:25;12.90;67.80
24224;DHT22;12359;49.716;9.212;2023-05-07T02:22:51;12.90;68.00
24224;DHT22;12359;49.716;9.212;2023-05-07T02:25:16;13.00;66.60
24224;DHT22;12359;49.716;9.212;2023-05-07T02:27:42;13.00;67.80
24224;DHT22;12359;49.716;9.212;2023-05-07T02:30:08;12.90;68.40
24224;DHT22;12359;49.716;9.212;2023-05-07T02:32:34;12.90;73.60
24224;DHT22;12359;49.716;9.212;2023-05-07T02:34:59;12.90;73.40
24224;DHT22;12359;49.716;9.212;2023-05-07T02:37:25;12.80;72.90
24224;DHT22;12359;49.716;9.212;2023-05-07T02:39:50;12.80;71.60
24224;DHT22;12359;49.716;9.212;2023-05-07T02:42:16;12.80;75.60
24224;DHT22;12359;49.716;9.212;2023-05-07T02:44:42;12.70;73.90
24224;DHT22;12359;49.716;9.212;2023-05-07T02:47:08;12.80;76.10
24224;DHT22;12359;49.716;9.212;2023-05-07T02:49:35;12.70;75.20
24224;DHT22;12359;49.716;9.212;2023-05-07T02:52:00;12.70;75.00
24224;DHT22;12359;49.716;9.212;2023-05-07T02:54:26;12.60;72.30
24224;DHT22;12359;49.716;9.212;2023-05-07T02:56:51;12.60;76.10
24224;DHT22;12359;49.716;9.212;2023-05-07T02:59:17;12.60;76.70
24224;DHT22;12359;49.716;9.212;2023-05-07T03:01:43;12.50;79.90
24224;DHT22;12359;49.716;9.212;2023-05-07T03:04:10;12.60;79.20
24224;DHT22;12359;49.716;9.212;2023-05-07T03:06:36;12.50;76.20
24224;DHT22;12359;49.716;9.212;2023-05-07T03:09:02;12.50;75.50
24224;DHT22;12359;49.716;9.212;2023-05-07T03:11:28;12.50;75.80
24224;DHT22;12359;49.716;9.212;2023-05-07T03:13:54;12.50;77.20
24224;DHT22;12359;49.716;9.212;2023-05-07T03:16:19;12.40;77.50
24224;DHT22;12359;49.716;9.212;2023-05-07T03:18:45;12.40;76.50
24224;DHT22;12359;49.716;9.212;2023-05-07T03:21:11;12.50;78.00
24224;DHT22;12359;49.716;9.212;2023-05-07T03:23:36;12.40;75.70
24224;DHT22;12359;49.716;9.212;2023-05-07T03:26:02;12.40;75.60
24224;DHT22;12359;49.716;9.212;2023-05-07T03:28:28;12.40;76.50
24224;DHT22;12359;49.716;9.212;2023-05-07T03:30:53;12.30;78.40
24224;DHT22;12359;49.716;9.212;2023-05-07T03:33:19;12.30;75.80
24224;DHT22;12359;49.716;9.212;2023-05-07T03:35:45;12.30;78.90
24224;DHT22;12359;49.716;9.212;2023-05-07T03:38:11;12.20;79.60
24224;DHT22;12359;49.716;9.212;2023-05-07T03:40:37;12.20;82.20
24224;DHT22;12359;49.716;9.212;2023-05-07T03:43:02;12.10;87.40
24224;DHT22;12359;49.716;9.212;2023-05-07T03:45:28;12.10;87.10
24224;DHT22;12359;49.716;9.212;2023-05-07T03:47:53;12.10;86.80
24224;DHT22;12359;49.716;9.212;2023-05-07T03:50:19;12.10;88.60
24224;DHT22;12359;49.716;9.212;2023-05-07T03:52:45;12.10;90.30
24224;DHT22;12359;49.716;9.212;2023-05-07T03:55:11;12.20;90.50
24224;DHT22;12359;49.716;9.212;2023-05-07T03:57:37;12.20;87.20
24224;DHT22;12359;49.716;9.212;2023-05-07T04:00:02;12.30;86.20
24224;DHT22;12359;49.716;9.212;2023-05-07T04:02:30;12.30;84.90
24224;DHT22;12359;49.716;9.212;2023-05-07T04:04:55;12.40;83.60
24224;DHT22;12359;49.716;9.212;2023-05-07T04:07:21;12.40;81.80
24224;DHT22;12359;49.716;9.212;2023-05-07T04:09:47;12.40;80.40
24224;DHT22;12359;49.716;9.212;2023-05-07T04:12:13;12.40;79.50
24224;DHT22;12359;49.716;9.212;2023-05-07T04:14:38;12.30;82.30
24224;DHT22;12359;49.716;9.212;2023-05-07T04:17:04;12.30;83.40
24224;DHT22;12359;49.716;9.212;2023-05-07T04:19:33;12.30;84.60
24224;DHT22;12359;49.716;9.212;2023-05-07T04:21:59;12.30;84.20
24224;DHT22;12359;49.716;9.212;2023-05-07T04:24:24;12.40;85.30
24224;DHT22;12359;49.716;9.212;2023-05-07T04:26:50;12.50;84.90
24224;DHT22;12359;49.716;9.212;2023-05-07T04:29:16;12.50;82.00
24224;DHT22;12359;49.716;9.212;2023-05-07T04:31:42;12.60;80.70
24224;DHT22;12359;49.716;9.212;2023-05-07T04:34:10;12.60;79.00
24224;DHT22;12359;49.716;9.212;2023-05-07T04:36:38;12.70;78.70
24224;DHT22;12359;49.716;9.212;2023-05-07T04:39:04;12.70;75.80
24224;DHT22;12359;49.716;9.212;2023-05-07T04:41:29;12.70;73.50
24224;DHT22;12359;49.716;9.212;2023-05-07T04:43:55;12.80;73.90
24224;DHT22;12359;49.716;9.212;2023-05-07T04:46:22;12.90;70.00
24224;DHT22;12359;49.716;9.212;2023-05-07T04:48:49;12.80;68.00
24224;DHT22;12359;49.716;9.212;2023-05-07T04:51:15;12.80;64.50
24224;DHT22;12359;49.716;9.212;2023-05-07T04:53:40;12.80;69.70
24224;DHT22;12359;49.716;9.212;2023-05-07T04:56:06;12.80;70.50
24224;DHT22;12359;49.716;9.212;2023-05-07T04:58:32;12.80;69.80
24224;DHT22;12359;49.716;9.212;2023-05-07T05:00:58;12.70;74.80
24224;DHT22;12359;49.716;9.212;2023-05-07T05:03:24;12.70;78.50
24224;DHT22;12359;49.716;9.212;2023-05-07T05:05:51;12.80;77.00
24224;DHT22;12359;49.716;9.212;2023-05-07T05:08:17;12.90;73.00
24224;DHT22;12359;49.716;9.212;2023-05-07T05:10:43;13.00;68.90
24224;DHT22;12359;49.716;9.212;2023-05-07T05:13:09;13.10;63.00
24224;DHT22;12359;49.716;9.212;2023-05-07T05:15:35;13.30;61.30
24224;DHT22;12359;49.716;9.212;2023-05-07T05:18:01;13.40;58.60
24224;DHT22;12359;49.716;9.212;2023-05-07T05:20:26;13.60;57.70
24224;DHT22;12359;49.716;9.212;2023-05-07T05:22:52;13.70;37.40
24224;DHT22;12359;49.716;9.212;2023-05-07T05:25:18;13.70;36.00
24224;DHT22;12359;49.716;9.212;2023-05-07T05:27:43;13.80;32.00
24224;DHT22;12359;49.716;9.212;2023-05-07T05:30:10;13.90;31.40
24224;DHT22;12359;49.716;9.212;2023-05-07T05:32:35;13.90;29.90
24224;DHT22;12359;49.716;9.212;2023-05-07T05:35:01;14.00;25.40
24224;DHT22;12359;49.716;9.212;2023-05-07T05:37:27;14.00;25.40
24224;DHT22;12359;49.716;9.212;2023-05-07T05:39:53;14.00;26.10
24224;DHT22;12359;49.716;9.212;2023-05-07T05:42:20;14.00;23.30
24224;DHT22;12359;49.716;9.212;2023-05-07T05:44:46;14.10;22.50
24224;DHT22;12359;49.716;9.212;2023-05-07T05:47:11;14.20;20.00
24224;DHT22;12359;49.716;9.212;2023-05-07T05:49:37;14.30;17.60
24224;DHT22;12359;49.716;9.212;2023-05-07T05:52:03;14.40;12.70
24224;DHT22;12359;49.716;9.212;2023-05-07T05:54:28;14.50;6.10
24224;DHT22;12359;49.716;9.212;2023-05-07T05:56:54;14.60;1.00
24224;DHT22;12359;49.716;9.212;2023-05-07T05:59:20;14.70;1.00
24224;DHT22;12359;49.716;9.212;2023-05-07T06:01:46;14.70;1.00
24224;DHT22;12359;49.716;9.212;2023-05-07T06:04:12;14.70;1.00
24224;DHT22;12359;49.716;9.212;2023-05-07T06:06:38;14.90;1.00
24224;DHT22;12359;49.716;9.212;2023-05-07T06:09:03;15.00;1.00
24224;DHT22;12359;49.716;9.212;2023-05-07T06:11:29;15.10;1.00
24224;DHT22;12359;49.716;9.212;2023-05-07T06:13:55;15.20;1.00
24224;DHT22;12359;49.716;9.212;2023-05-07T06:16:20;15.20;1.00
24224;DHT22;12359;49.716;9.212;2023-05-07T06:18:46;15.20;1.00
24224;DHT22;12359;49.716;9.212;2023-05-07T06:21:13;15.30;1.00
24224;DHT22;12359;49.716;9.212;2023-05-07T06:23:39;15.40;1.00
24224;DHT22;12359;49.716;9.212;2023-05-07T06:26:06;15.30;1.00
24224;DHT22;12359;49.716;9.212;2023-05-07T06:28:32;15.40;1.00
24224;DHT22;12359;49.716;9.212;2023-05-07T06:31:13;15.50;1.00
24224;DHT22;12359;49.716;9.212;2023-05-07T06:33:40;15.50;1.00
24224;DHT22;12359;49.716;9.212;2023-05-07T06:36:06;15.50;1.00
24224;DHT22;12359;49.716;9.212;2023-05-07T06:38:31;15.60;1.00
24224;DHT22;12359;49.716;9.212;2023-05-07T06:40:57;15.70;1.00
24224;DHT22;12359;49.716;9.212;2023-05-07T06:43:23;15.80;1.00
24224;DHT22;12359;49.716;9.212;2023-05-07T06:45:48;15.70;1.00
24224;DHT22;12359;49.716;9.212;2023-05-07T06:48:14;15.80;1.00
24224;DHT22;12359;49.716;9.212;2023-05-07T06:50:41;15.80;1.00
24224;DHT22;12359;49.716;9.212;2023-05-07T06:53:07;15.90;1.00
24224;DHT22;12359;49.716;9.212;2023-05-07T06:55:32;15.90;99.90
24224;DHT22;12359;49.716;9.212;2023-05-07T06:57:58;16.00;99.90
24224;DHT22;12359;49.716;9.212;2023-05-07T07:00:26;16.10;99.90
24224;DHT22;12359;49.716;9.212;2023-05-07T07:02:53;16.20;99.90
24224;DHT22;12359;49.716;9.212;2023-05-07T07:05:19;16.20;99.90
24224;DHT22;12359;49.716;9.212;2023-05-07T07:07:45;16.30;99.90
24224;DHT22;12359;49.716;9.212;2023-05-07T07:10:18;16.30;99.90
24224;DHT22;12359;49.716;9.212;2023-05-07T07:12:44;16.40;99.90
24224;DHT22;12359;49.716;9.212;2023-05-07T07:15:10;16.40;99.90
24224;DHT22;12359;49.716;9.212;2023-05-07T07:17:36;16.40;99.90
24224;DHT22;12359;49.716;9.212;2023-05-07T07:20:02;16.40;99.90
24224;DHT22;12359;49.716;9.212;2023-05-07T07:22:28;16.40;99.90
24224;DHT22;12359;49.716;9.212;2023-05-07T07:24:54;16.50;99.90
24224;DHT22;12359;49.716;9.212;2023-05-07T07:27:20;16.60;95.10
24224;DHT22;12359;49.716;9.212;2023-05-07T07:29:45;16.80;11.70
24224;DHT22;12359;49.716;9.212;2023-05-07T07:32:11;16.90;4.40
24224;DHT22;12359;49.716;9.212;2023-05-07T07:34:37;17.00;1.00
24224;DHT22;12359;49.716;9.212;2023-05-07T07:37:02;17.20;1.00
24224;DHT22;12359;49.716;9.212;2023-05-07T07:39:32;17.20;99.90
24224;DHT22;12359;49.716;9.212;2023-05-07T07:41:57;17.40;62.00
24224;DHT22;12359;49.716;9.212;2023-05-07T07:44:23;17.50;1.00
24224;DHT22;12359;49.716;9.212;2023-05-07T07:46:49;17.50;45.70
24224;DHT22;12359;49.716;9.212;2023-05-07T07:49:16;17.60;99.90
24224;DHT22;12359;49.716;9.212;2023-05-07T07:51:41;17.60;99.90
24224;DHT22;12359;49.716;9.212;2023-05-07T07:54:07;17.60;99.90
24224;DHT22;12359;49.716;9.212;2023-05-07T07:56:33;17.60;99.90
24224;DHT22;12359;49.716;9.212;2023-05-07T07:58:59;17.60;72.90
24224;DHT22;12359;49.716;9.212;2023-05-07T08:01:25;17.50;99.90
24224;DHT22;12359;49.716;9.212;2023-05-07T08:03:52;17.40;1.00
24224;DHT22;12359;49.716;9.212;2023-05-07T08:06:18;17.40;70.30
24224;DHT22;12359;49.716;9.212;2023-05-07T08:08:44;17.30;89.70
24224;DHT22;12359;49.716;9.212;2023-05-07T08:11:10;17.30;99.90
24224;DHT22;12359;49.716;9.212;2023-05-07T08:13:36;17.40;99.90
24224;DHT22;12359;49.716;9.212;2023-05-07T08:16:04;17.40;97.60
24224;DHT22;12359;49.716;9.212;2023-05-07T08:18:29;17.50;99.90
24224;DHT22;12359;49.716;9.212;2023-05-07T08:20:55;17.70;99.90
24224;DHT22;12359;49.716;9.212;2023-05-07T08:23:21;17.90;99.90
24224;DHT22;12359;49.716;9.212;2023-05-07T08:25:48;18.00;99.90
24224;DHT22;12359;49.716;9.212;2023-05-07T08:28:13;18.00;99.90
24224;DHT22;12359;49.716;9.212;2023-05-07T08:30:39;18.00;99.90
24224;DHT22;12359;49.716;9.212;2023-05-07T08:33:05;18.10;99.90
24224;DHT22;12359;49.716;9.212;2023-05-07T08:35:30;18.20;99.90
24224;DHT22;12359;49.716;9.212;2023-05-07T08:37:57;18.30;21.20
24224;DHT22;12359;49.716;9.212;2023-05-07T08:40:25;18.30;99.90
24224;DHT22;12359;49.716;9.212;2023-05-07T08:42:53;18.40;99.90
24224;DHT22;12359;49.716;9.212;2023-05-07T08:45:20;18.50;1.00
24224;DHT22;12359;49.716;9.212;2023-05-07T08:48:01;18.60;99.90
24224;DHT22;12359;49.716;9.212;2023-05-07T08:50:28;18.70;99.90
24224;DHT22;12359;49.716;9.212;2023-05-07T08:52:53;18.80;99.90
24224;DHT22;12359;49.716;9.212;2023-05-07T08:55:20;18.60;1.00
24224;DHT22;12359;49.716;9.212;2023-05-07T08:57:46;18.60;99.90
24224;DHT22;12359;49.716;9.212;2023-05-07T09:00:13;18.50;99.90
24224;DHT22;12359;49.716;9.212;2023-05-07T09:02:39;18.60;99.90
24224;DHT22;12359;49.716;9.212;2023-05-07T09:05:05;18.80;99.90
24224;DHT22;12359;49.716;9.212;2023-05-07T09:07:31;18.90;99.90
24224;DHT22;12359;49.716;9.212;2023-05-07T09:09:57;19.00;99.90
24224;DHT22;12359;49.716;9.212;2023-05-07T09:12:23;19.30;1.00
24224;DHT22;12359;49.716;9.212;2023-05-07T09:14:49;19.70;99.90
24224;DHT22;12359;49.716;9.212;2023-05-07T09:17:16;20.30;45.70
24224;DHT22;12359;49.716;9.212;2023-05-07T09:19:46;20.90;99.90
24224;DHT22;12359;49.716;9.212;2023-05-07T09:22:12;21.50;99.90
24224;DHT22;12359;49.716;9.212;2023-05-07T09:24:38;21.70;1.00
24224;DHT22;12359;49.716;9.212;2023-05-07T09:27:05;21.80;1.00
24224;DHT22;12359;49.716;9.212;2023-05-07T09:29:30;21.90;99.90
24224;DHT22;12359;49.716;9.212;2023-05-07T09:32:10;22.00;1.00
24224;DHT22;12359;49.716;9.212;2023-05-07T09:34:36;22.00;99.90
24224;DHT22;12359;49.716;9.212;2023-05-07T09:37:05;22.30;99.90
24224;DHT22;12359;49.716;9.212;2023-05-07T09:39:43;22.40;95.20
24224;DHT22;12359;49.716;9.212;2023-05-07T09:42:09;22.80;99.90
24224;DHT22;12359;49.716;9.212;2023-05-07T09:44:37;23.10;1.00
24224;DHT22;12359;49.716;9.212;2023-05-07T09:47:05;23.30;1.00
24224;DHT22;12359;49.716;9.212;2023-05-07T09:49:37;23.10;1.00
24224;DHT22;12359;49.716;9.212;2023-05-07T09:52:04;23.30;1.00
24224;DHT22;12359;49.716;9.212;2023-05-07T09:54:36;23.50;99.90
24224;DHT22;12359;49.716;9.212;2023-05-07T09:57:04;22.70;99.90
24224;DHT22;12359;49.716;9.212;2023-05-07T09:59:32;22.70;99.90
24224;DHT22;12359;49.716;9.212;2023-05-07T10:01:59;22.40;99.90
24224;DHT22;12359;49.716;9.212;2023-05-07T10:04:26;22.10;1.00
24224;DHT22;12359;49.716;9.212;2023-05-07T10:06:52;22.20;1.00
24224;DHT22;12359;49.716;9.212;2023-05-07T10:09:19;22.10;1.00
24224;DHT22;12359;49.716;9.212;2023-05-07T10:11:46;22.60;1.00
24224;DHT22;12359;49.716;9.212;2023-05-07T10:14:14;22.90;1.00
24224;DHT22;12359;49.716;9.212;2023-05-07T10:16:40;23.10;1.00
24224;DHT22;12359;49.716;9.212;2023-05-07T10:19:08;23.30;99.90
24224;DHT22;12359;49.716;9.212;2023-05-07T10:21:39;23.30;99.90
24224;DHT22;12359;49.716;9.212;2023-05-07T10:26:44;23.60;99.90
24224;DHT22;12359;49.716;9.212;2023-05-07T10:34:47;24.10;99.90
24224;DHT22;12359;49.716;9.212;2023-05-07T10:37:14;24.50;99.90
24224;DHT22;12359;49.716;9.212;2023-05-07T10:39:41;24.70;99.90
24224;DHT22;12359;49.716;9.212;2023-05-07T10:42:11;24.70;99.90
24224;DHT22;12359;49.716;9.212;2023-05-07T10:44:37;24.30;99.90
24224;DHT22;12359;49.716;9.212;2023-05-07T10:47:13;23.80;99.90
24224;DHT22;12359;49.716;9.212;2023-05-07T10:52:12;23.80;99.90
24224;DHT22;12359;49.716;9.212;2023-05-07T10:54:45;23.90;99.90
24224;DHT22;12359;49.716;9.212;2023-05-07T10:57:35;23.90;99.90
24224;DHT22;12359;49.716;9.212;2023-05-07T11:03:15;24.30;99.90
24224;DHT22;12359;49.716;9.212;2023-05-07T11:05:41;23.80;99.90
24224;DHT22;12359;49.716;9.212;2023-05-07T11:08:08;24.00;99.90
24224;DHT22;12359;49.716;9.212;2023-05-07T11:10:52;24.10;99.90
24224;DHT22;12359;49.716;9.212;2023-05-07T11:18:51;24.40;99.90
24224;DHT22;12359;49.716;9.212;2023-05-07T11:21:33;24.70;99.90
24224;DHT22;12359;49.716;9.212;2023-05-07T11:24:01;24.90;99.90
24224;DHT22;12359;49.716;9.212;2023-05-07T11:26:28;24.70;97.40
24224;DHT22;12359;49.716;9.212;2023-05-07T11:28:54;24.20;99.20
24224;DHT22;12359;49.716;9.212;2023-05-07T11:31:24;24.00;99.90
24224;DHT22;12359;49.716;9.212;2023-05-07T11:33:52;24.20;99.90
24224;DHT22;12359;49.716;9.212;2023-05-07T11:36:18;24.00;99.90
24224;DHT22;12359;49.716;9.212;2023-05-07T11:38:46;23.80;99.90
24224;DHT22;12359;49.716;9.212;2023-05-07T11:41:11;24.00;99.90
24224;DHT22;12359;49.716;9.212;2023-05-07T11:43:37;24.20;99.90
24224;DHT22;12359;49.716;9.212;2023-05-07T11:46:09;24.10;99.90
24224;DHT22;12359;49.716;9.212;2023-05-07T11:48:35;24.40;99.90
24224;DHT22;12359;49.716;9.212;2023-05-07T11:51:03;24.40;99.90
24224;DHT22;12359;49.716;9.212;2023-05-07T11:53:37;24.40;99.90
24224;DHT22;12359;49.716;9.212;2023-05-07T11:56:10;24.50;97.90
24224;DHT22;12359;49.716;9.212;2023-05-07T11:58:36;24.40;93.70
24224;DHT22;12359;49.716;9.212;2023-05-07T12:01:02;24.40;99.90
24224;DHT22;12359;49.716;9.212;2023-05-07T12:03:28;24.30;93.10
24224;DHT22;12359;49.716;9.212;2023-05-07T12:05:54;24.30;93.90
24224;DHT22;12359;49.716;9.212;2023-05-07T12:08:20;24.50;99.90
24224;DHT22;12359;49.716;9.212;2023-05-07T12:10:49;24.40;83.40
24224;DHT22;12359;49.716;9.212;2023-05-07T12:13:19;24.00;83.80
24224;DHT22;12359;49.716;9.212;2023-05-07T12:15:45;23.80;93.40
24224;DHT22;12359;49.716;9.212;2023-05-07T12:18:11;24.10;99.90
24224;DHT22;12359;49.716;9.212;2023-05-07T12:20:38;24.10;95.50
24224;DHT22;12359;49.716;9.212;2023-05-07T12:23:04;24.50;97.50
24224;DHT22;12359;49.716;9.212;2023-05-07T12:25:34;25.00;85.90
24224;DHT22;12359;49.716;9.212;2023-05-07T12:28:01;24.80;68.70
24224;DHT22;12359;49.716;9.212;2023-05-07T12:30:27;25.00;58.40
24224;DHT22;12359;49.716;9.212;2023-05-07T12:32:54;25.10;54.60
24224;DHT22;12359;49.716;9.212;2023-05-07T12:35:30;25.20;41.50
24224;DHT22;12359;49.716;9.212;2023-05-07T12:37:58;25.10;27.20
24224;DHT22;12359;49.716;9.212;2023-05-07T12:40:41;25.00;31.70
24224;DHT22;12359;49.716;9.212;2023-05-07T12:43:07;25.40;41.00
24224;DHT22;12359;49.716;9.212;2023-05-07T12:45:37;25.50;40.70
24224;DHT22;12359;49.716;9.212;2023-05-07T12:48:06;25.70;41.30
24224;DHT22;12359;49.716;9.212;2023-05-07T12:50:33;25.60;22.80
24224;DHT22;12359;49.716;9.212;2023-05-07T12:52:59;25.50;16.90
24224;DHT22;12359;49.716;9.212;2023-05-07T12:55:25;25.30;18.00
24224;DHT22;12359;49.716;9.212;2023-05-07T12:57:51;25.50;21.00
24224;DHT22;12359;49.716;9.212;2023-05-07T13:00:35;25.70;12.20
24224;DHT22;12359;49.716;9.212;2023-05-07T13:03:25;25.80;14.00
24224;DHT22;12359;49.716;9.212;2023-05-07T13:05:52;25.70;1.00
24224;DHT22;12359;49.716;9.212;2023-05-07T13:08:44;25.70;1.00
24224;DHT22;12359;49.716;9.212;2023-05-07T13:11:10;25.50;1.00
24224;DHT22;12359;49.716;9.212;2023-05-07T13:13:38;25.40;1.00
24224;DHT22;12359;49.716;9.212;2023-05-07T13:16:05;25.90;1.00
24224;DHT22;12359;49.716;9.212;2023-05-07T13:18:33;26.20;3.70
24224;DHT22;12359;49.716;9.212;2023-05-07T13:21:00;26.20;1.00
24224;DHT22;12359;49.716;9.212;2023-05-07T13:23:26;26.10;1.00
24224;DHT22;12359;49.716;9.212;2023-05-07T13:25:52;26.20;1.00
24224;DHT22;12359;49.716;9.212;2023-05-07T13:28:21;26.10;1.00
24224;DHT22;12359;49.716;9.212;2023-05-07T13:30:47;25.80;1.00
24224;DHT22;12359;49.716;9.212;2023-05-07T13:33:13;25.40;1.00
24224;DHT22;12359;49.716;9.212;2023-05-07T13:35:39;25.20;1.00
24224;DHT22;12359;49.716;9.212;2023-05-07T13:38:05;24.90;1.00
24224;DHT22;12359;49.716;9.212;2023-05-07T13:40:31;24.80;1.00
24224;DHT22;12359;49.716;9.212;2023-05-07T13:42:57;24.70;1.00
24224;DHT22;12359;49.716;9.212;2023-05-07T13:45:24;24.70;1.00
24224;DHT22;12359;49.716;9.212;2023-05-07T13:47:51;24.60;1.00
24224;DHT22;12359;49.716;9.212;2023-05-07T13:50:17;24.50;1.00
24224;DHT22;12359;49.716;9.212;2023-05-07T13:52:44;24.40;1.00
24224;DHT22;12359;49.716;9.212;2023-05-07T13:55:22;24.30;1.00
24224;DHT22;12359;49.716;9.212;2023-05-07T13:57:58;24.50;1.00
24224;DHT22;12359;49.716;9.212;2023-05-07T14:00:25;24.50;1.00
24224;DHT22;12359;49.716;9.212;2023-05-07T14:02:52;24.60;1.00
24224;DHT22;12359;49.716;9.212;2023-05-07T14:05:18;24.50;1.00
24224;DHT22;12359;49.716;9.212;2023-05-07T14:07:44;24.40;1.00
24224;DHT22;12359;49.716;9.212;2023-05-07T14:10:10;24.30;1.00
24224;DHT22;12359;49.716;9.212;2023-05-07T14:12:36;24.30;1.00
24224;DHT22;12359;49.716;9.212;2023-05-07T14:15:02;24.30;1.00
24224;DHT22;12359;49.716;9.212;2023-05-07T14:17:28;24.20;1.00
24224;DHT22;12359;49.716;9.212;2023-05-07T14:19:54;24.30;1.00
24224;DHT22;12359;49.716;9.212;2023-05-07T14:22:21;24.30;1.00
24224;DHT22;12359;49.716;9.212;2023-05-07T14:24:47;24.30;1.00
24224;DHT22;12359;49.716;9.212;2023-05-07T14:27:13;24.40;1.00
24224;DHT22;12359;49.716;9.212;2023-05-07T14:29:39;24.50;1.00
24224;DHT22;12359;49.716;9.212;2023-05-07T14:32:05;24.50;1.00
24224;DHT22;12359;49.716;9.212;2023-05-07T14:34:31;24.60;1.00
24224;DHT22;12359;49.716;9.212;2023-05-07T14:36:57;24.50;1.00
24224;DHT22;12359;49.716;9.212;2023-05-07T14:39:23;24.50;1.00
24224;DHT22;12359;49.716;9.212;2023-05-07T14:41:49;24.40;1.00
24224;DHT22;12359;49.716;9.212;2023-05-07T14:44:14;24.20;1.00
24224;DHT22;12359;49.716;9.212;2023-05-07T14:46:40;24.20;1.00
24224;DHT22;12359;49.716;9.212;2023-05-07T14:49:06;24.20;1.00
24224;DHT22;12359;49.716;9.212;2023-05-07T14:51:32;24.10;1.00
24224;DHT22;12359;49.716;9.212;2023-05-07T14:53:58;24.10;1.00
24224;DHT22;12359;49.716;9.212;2023-05-07T14:56:24;24.00;1.00
24224;DHT22;12359;49.716;9.212;2023-05-07T14:58:50;23.90;1.00
24224;DHT22;12359;49.716;9.212;2023-05-07T15:01:16;23.80;1.00
24224;DHT22;12359;49.716;9.212;2023-05-07T15:03:42;23.70;1.00
24224;DHT22;12359;49.716;9.212;2023-05-07T15:06:07;23.60;1.00
24224;DHT22;12359;49.716;9.212;2023-05-07T15:08:33;23.60;1.00
24224;DHT22;12359;49.716;9.212;2023-05-07T15:10:59;23.50;1.00
24224;DHT22;12359;49.716;9.212;2023-05-07T15:13:24;23.50;1.00
24224;DHT22;12359;49.716;9.212;2023-05-07T15:15:50;23.40;1.00
24224;DHT22;12359;49.716;9.212;2023-05-07T15:18:16;23.30;1.00
24224;DHT22;12359;49.716;9.212;2023-05-07T15:20:42;23.30;1.00
24224;DHT22;12359;49.716;9.212;2023-05-07T15:23:08;23.20;1.00
24224;DHT22;12359;49.716;9.212;2023-05-07T15:25:36;23.10;1.00
24224;DHT22;12359;49.716;9.212;2023-05-07T15:28:02;23.10;1.00
24224;DHT22;12359;49.716;9.212;2023-05-07T15:30:28;23.10;1.20
24224;DHT22;12359;49.716;9.212;2023-05-07T15:32:54;23.10;2.90
24224;DHT22;12359;49.716;9.212;2023-05-07T15:35:20;23.10;2.60
24224;DHT22;12359;49.716;9.212;2023-05-07T15:37:48;23.00;7.10
24224;DHT22;12359;49.716;9.212;2023-05-07T15:40:15;23.00;12.90
24224;DHT22;12359;49.716;9.212;2023-05-07T15:42:41;22.90;13.00
24224;DHT22;12359;49.716;9.212;2023-05-07T15:45:07;22.80;18.20
24224;DHT22;12359;49.716;9.212;2023-05-07T15:47:33;22.70;28.00
24224;DHT22;12359;49.716;9.212;2023-05-07T15:50:00;22.70;47.20
24224;DHT22;12359;49.716;9.212;2023-05-07T15:52:26;22.70;92.10